Terminal Aerodrome Forecast
Issued by NWS

Current Version | Previous Version | Text Only | Print | Product List | Glossary On
Versions: 1 2 3 4 5 6 7 8 9 10 11 12 13
094
FTUS42 KMLB 300055 AAA
TAFISM
TAF AMD
KISM 300055Z 3001/3024 10012KT P6SM SCT050 SCT250
     FM300300 11009KT P6SM FEW035 SCT250
     FM300600 11007KT P6SM SCT025 SCT050 BKN250
      TEMPO 3009/3012 BKN020
     FM301500 14015G21KT P6SM FEW025 SCT040 BKN060=

USA.gov is the U.S. government's official web portal to all federal, state and local government web resources and services.